sensor_id;sensor_type;location;lat;lon;timestamp;pressure;altitude;pressure_sealevel;temperature;humidity
77159;BME280;66129;45.890;13.714;2023-08-31T00:01:40;100407.63;;;16.35;100.00
77159;BME280;66129;45.890;13.714;2023-08-31T00:04:06;100446.28;;;16.52;100.00
77159;BME280;66129;45.890;13.714;2023-08-31T00:06:42;100418.97;;;16.19;100.00
77159;BME280;66129;45.890;13.714;2023-08-31T00:09:10;100435.19;;;16.39;100.00
77159;BME280;66129;45.890;13.714;2023-08-31T00:11:36;100417.16;;;16.32;100.00
77159;BME280;66129;45.890;13.714;2023-08-31T00:14:02;100431.72;;;16.45;100.00
77159;BME280;66129;45.890;13.714;2023-08-31T00:16:27;100432.47;;;16.57;100.00
77159;BME280;66129;45.890;13.714;2023-08-31T00:18:53;100429.06;;;16.49;100.00
77159;BME280;66129;45.890;13.714;2023-08-31T00:21:22;100425.63;;;16.47;100.00
77159;BME280;66129;45.890;13.714;2023-08-31T00:23:48;100420.56;;;16.37;100.00
77159;BME280;66129;45.890;13.714;2023-08-31T00:26:14;100442.97;;;16.41;100.00
77159;BME280;66129;45.890;13.714;2023-08-31T00:28:40;100422.47;;;16.17;100.00
77159;BME280;66129;45.890;13.714;2023-08-31T00:31:08;100440.44;;;16.30;100.00
77159;BME280;66129;45.890;13.714;2023-08-31T00:33:33;100429.22;;;16.30;100.00
77159;BME280;66129;45.890;13.714;2023-08-31T00:36:02;100424.06;;;16.28;100.00
77159;BME280;66129;45.890;13.714;2023-08-31T00:38:29;100439.50;;;16.42;100.00
77159;BME280;66129;45.890;13.714;2023-08-31T00:40:55;100443.81;;;16.43;100.00
77159;BME280;66129;45.890;13.714;2023-08-31T00:43:21;100448.22;;;16.32;100.00
77159;BME280;66129;45.890;13.714;2023-08-31T00:45:49;100449.03;;;16.37;100.00
77159;BME280;66129;45.890;13.714;2023-08-31T00:48:16;100454.06;;;16.53;100.00
77159;BME280;66129;45.890;13.714;2023-08-31T00:50:43;100439.47;;;16.45;100.00
77159;BME280;66129;45.890;13.714;2023-08-31T00:53:09;100460.91;;;16.57;100.00
77159;BME280;66129;45.890;13.714;2023-08-31T00:55:34;100449.72;;;16.54;100.00
77159;BME280;66129;45.890;13.714;2023-08-31T00:58:00;100456.66;;;16.53;100.00
77159;BME280;66129;45.890;13.714;2023-08-31T01:03:12;100471.28;;;16.57;100.00
77159;BME280;66129;45.890;13.714;2023-08-31T01:05:46;100471.28;;;16.53;100.00
77159;BME280;66129;45.890;13.714;2023-08-31T01:08:40;100452.50;;;16.36;100.00
77159;BME280;66129;45.890;13.714;2023-08-31T01:13:51;100459.34;;;16.40;100.00
77159;BME280;66129;45.890;13.714;2023-08-31T01:16:17;100473.09;;;16.48;100.00
77159;BME280;66129;45.890;13.714;2023-08-31T01:18:45;100484.25;;;16.50;100.00
77159;BME280;66129;45.890;13.714;2023-08-31T01:21:24;100460.25;;;16.36;100.00
77159;BME280;66129;45.890;13.714;2023-08-31T01:23:57;100474.84;;;16.41;100.00
77159;BME280;66129;45.890;13.714;2023-08-31T01:26:24;100497.19;;;16.50;100.00
77159;BME280;66129;45.890;13.714;2023-08-31T01:28:51;100468.88;;;16.35;100.00
77159;BME280;66129;45.890;13.714;2023-08-31T01:31:17;100470.63;;;16.33;100.00
77159;BME280;66129;45.890;13.714;2023-08-31T01:33:43;100477.47;;;16.40;100.00
77159;BME280;66129;45.890;13.714;2023-08-31T01:36:17;100480.88;;;16.45;100.00
77159;BME280;66129;45.890;13.714;2023-08-31T01:38:45;100470.59;;;16.36;100.00
77159;BME280;66129;45.890;13.714;2023-08-31T01:41:14;100476.63;;;16.35;100.00
77159;BME280;66129;45.890;13.714;2023-08-31T01:43:41;100491.22;;;16.45;100.00
77159;BME280;66129;45.890;13.714;2023-08-31T01:46:08;100474.88;;;16.38;100.00
77159;BME280;66129;45.890;13.714;2023-08-31T01:48:40;100499.75;;;16.53;100.00
77159;BME280;66129;45.890;13.714;2023-08-31T01:51:07;100510.91;;;16.61;100.00
77159;BME280;66129;45.890;13.714;2023-08-31T01:53:33;100509.22;;;16.57;100.00
77159;BME280;66129;45.890;13.714;2023-08-31T01:55:58;100517.00;;;16.55;100.00
77159;BME280;66129;45.890;13.714;2023-08-31T01:58:24;100512.69;;;16.54;100.00
77159;BME280;66129;45.890;13.714;2023-08-31T02:00:49;100487.84;;;16.37;100.00
77159;BME280;66129;45.890;13.714;2023-08-31T02:03:15;100492.97;;;16.41;100.00
77159;BME280;66129;45.890;13.714;2023-08-31T02:05:40;100512.69;;;16.53;100.00
77159;BME280;66129;45.890;13.714;2023-08-31T02:08:06;100516.22;;;16.49;100.00
77159;BME280;66129;45.890;13.714;2023-08-31T02:10:31;100498.16;;;16.40;100.00
77159;BME280;66129;45.890;13.714;2023-08-31T02:12:57;100523.91;;;16.55;100.00
77159;BME280;66129;45.890;13.714;2023-08-31T02:15:22;100498.19;;;16.37;100.00
77159;BME280;66129;45.890;13.714;2023-08-31T02:17:48;100505.03;;;16.44;100.00
77159;BME280;66129;45.890;13.714;2023-08-31T02:20:13;100540.28;;;16.54;100.00
77159;BME280;66129;45.890;13.714;2023-08-31T02:22:39;100512.81;;;16.39;100.00
77159;BME280;66129;45.890;13.714;2023-08-31T02:25:05;100515.47;;;16.33;100.00
77159;BME280;66129;45.890;13.714;2023-08-31T02:27:31;100524.94;;;16.31;100.00
77159;BME280;66129;45.890;13.714;2023-08-31T02:29:57;100510.34;;;16.21;100.00
77159;BME280;66129;45.890;13.714;2023-08-31T02:32:22;100510.38;;;16.18;100.00
77159;BME280;66129;45.890;13.714;2023-08-31T02:34:49;100520.75;;;16.12;100.00
77159;BME280;66129;45.890;13.714;2023-08-31T02:37:14;100521.63;;;16.10;100.00
77159;BME280;66129;45.890;13.714;2023-08-31T02:39:40;100549.13;;;16.21;100.00
77159;BME280;66129;45.890;13.714;2023-08-31T02:42:05;100525.97;;;16.08;100.00
77159;BME280;66129;45.890;13.714;2023-08-31T02:44:31;100510.50;;;15.97;100.00
77159;BME280;66129;45.890;13.714;2023-08-31T02:46:57;100528.53;;;16.09;100.00
77159;BME280;66129;45.890;13.714;2023-08-31T02:49:22;100507.03;;;16.00;100.00
77159;BME280;66129;45.890;13.714;2023-08-31T02:51:48;100513.06;;;16.03;100.00
77159;BME280;66129;45.890;13.714;2023-08-31T02:54:15;100509.63;;;16.00;100.00
77159;BME280;66129;45.890;13.714;2023-08-31T02:56:40;100523.44;;;16.00;100.00
77159;BME280;66129;45.890;13.714;2023-08-31T02:59:06;100523.47;;;15.91;100.00
77159;BME280;66129;45.890;13.714;2023-08-31T03:01:31;100517.53;;;15.76;100.00
77159;BME280;66129;45.890;13.714;2023-08-31T03:03:57;100527.00;;;15.80;100.00
77159;BME280;66129;45.890;13.714;2023-08-31T03:06:23;100515.84;;;15.66;100.00
77159;BME280;66129;45.890;13.714;2023-08-31T03:08:48;100513.34;;;15.54;100.00
77159;BME280;66129;45.890;13.714;2023-08-31T03:11:14;100519.38;;;15.53;100.00
77159;BME280;66129;45.890;13.714;2023-08-31T03:13:40;100559.78;;;15.63;100.00
77159;BME280;66129;45.890;13.714;2023-08-31T03:16:06;100542.59;;;15.52;100.00
77159;BME280;66129;45.890;13.714;2023-08-31T03:18:32;100543.50;;;15.52;100.00
77159;BME280;66129;45.890;13.714;2023-08-31T03:20:58;100569.31;;;15.58;100.00
77159;BME280;66129;45.890;13.714;2023-08-31T03:23:24;100540.06;;;15.41;100.00
77159;BME280;66129;45.890;13.714;2023-08-31T03:25:50;100563.34;;;15.32;100.00
77159;BME280;66129;45.890;13.714;2023-08-31T03:28:15;100568.50;;;15.35;100.00
77159;BME280;66129;45.890;13.714;2023-08-31T03:30:41;100569.38;;;15.27;100.00
77159;BME280;66129;45.890;13.714;2023-08-31T03:33:06;100563.34;;;15.23;100.00
77159;BME280;66129;45.890;13.714;2023-08-31T03:35:32;100590.91;;;15.32;100.00
77159;BME280;66129;45.890;13.714;2023-08-31T03:37:58;100580.56;;;15.30;100.00
77159;BME280;66129;45.890;13.714;2023-08-31T03:40:23;100579.72;;;15.28;100.00
77159;BME280;66129;45.890;13.714;2023-08-31T03:42:52;100574.53;;;15.39;100.00
77159;BME280;66129;45.890;13.714;2023-08-31T03:45:19;100572.75;;;15.50;100.00
77159;BME280;66129;45.890;13.714;2023-08-31T03:47:45;100579.63;;;15.57;100.00
77159;BME280;66129;45.890;13.714;2023-08-31T03:50:10;100576.19;;;15.49;100.00
77159;BME280;66129;45.890;13.714;2023-08-31T03:52:36;100589.16;;;15.44;100.00
77159;BME280;66129;45.890;13.714;2023-08-31T03:55:01;100592.59;;;15.43;100.00
77159;BME280;66129;45.890;13.714;2023-08-31T03:57:27;100597.78;;;15.42;100.00
77159;BME280;66129;45.890;13.714;2023-08-31T03:59:55;100598.63;;;15.45;100.00
77159;BME280;66129;45.890;13.714;2023-08-31T04:02:20;100597.75;;;15.40;100.00
77159;BME280;66129;45.890;13.714;2023-08-31T04:04:46;100595.19;;;15.39;100.00
77159;BME280;66129;45.890;13.714;2023-08-31T04:07:11;100603.78;;;15.45;100.00
77159;BME280;66129;45.890;13.714;2023-08-31T04:09:37;100616.69;;;15.47;100.00
77159;BME280;66129;45.890;13.714;2023-08-31T04:12:03;100613.25;;;15.45;100.00
77159;BME280;66129;45.890;13.714;2023-08-31T04:14:28;100622.72;;;15.46;100.00
77159;BME280;66129;45.890;13.714;2023-08-31T04:16:55;100620.16;;;15.41;100.00
77159;BME280;66129;45.890;13.714;2023-08-31T04:19:20;100628.75;;;15.40;100.00
77159;BME280;66129;45.890;13.714;2023-08-31T04:21:46;100625.31;;;15.32;100.00
77159;BME280;66129;45.890;13.714;2023-08-31T04:24:12;100624.47;;;15.32;100.00
77159;BME280;66129;45.890;13.714;2023-08-31T04:26:37;100633.09;;;15.34;100.00
77159;BME280;66129;45.890;13.714;2023-08-31T04:29:03;100631.38;;;15.28;100.00
77159;BME280;66129;45.890;13.714;2023-08-31T04:31:31;100633.09;;;15.29;100.00
77159;BME280;66129;45.890;13.714;2023-08-31T04:33:56;100633.94;;;15.36;100.00
77159;BME280;66129;45.890;13.714;2023-08-31T04:36:22;100629.66;;;15.35;100.00
77159;BME280;66129;45.890;13.714;2023-08-31T04:38:48;100647.69;;;15.48;100.00
77159;BME280;66129;45.890;13.714;2023-08-31T04:41:14;100642.53;;;15.45;100.00
77159;BME280;66129;45.890;13.714;2023-08-31T04:43:40;100647.69;;;15.42;100.00
77159;BME280;66129;45.890;13.714;2023-08-31T04:46:06;100650.28;;;15.42;100.00
77159;BME280;66129;45.890;13.714;2023-08-31T04:48:32;100650.28;;;15.51;100.00
77159;BME280;66129;45.890;13.714;2023-08-31T04:50:57;100654.56;;;15.54;100.00
77159;BME280;66129;45.890;13.714;2023-08-31T04:53:23;100660.59;;;15.53;100.00
77159;BME280;66129;45.890;13.714;2023-08-31T04:55:48;100666.63;;;15.53;100.00
77159;BME280;66129;45.890;13.714;2023-08-31T04:58:14;100678.69;;;15.54;100.00
77159;BME280;66129;45.890;13.714;2023-08-31T05:00:39;100676.97;;;15.52;100.00
77159;BME280;66129;45.890;13.714;2023-08-31T05:03:05;100683.00;;;15.55;100.00
77159;BME280;66129;45.890;13.714;2023-08-31T05:05:31;100688.16;;;15.51;100.00
77159;BME280;66129;45.890;13.714;2023-08-31T05:07:56;100691.56;;;15.63;100.00
77159;BME280;66129;45.890;13.714;2023-08-31T05:10:22;100692.44;;;15.60;100.00
77159;BME280;66129;45.890;13.714;2023-08-31T05:12:47;100699.31;;;15.75;100.00
77159;BME280;66129;45.890;13.714;2023-08-31T05:15:13;100699.31;;;15.81;100.00
77159;BME280;66129;45.890;13.714;2023-08-31T05:17:38;100695.00;;;15.75;100.00
77159;BME280;66129;45.890;13.714;2023-08-31T05:20:05;100711.38;;;15.76;100.00
77159;BME280;66129;45.890;13.714;2023-08-31T05:22:30;100700.19;;;15.69;100.00
77159;BME280;66129;45.890;13.714;2023-08-31T05:24:56;100711.38;;;15.61;100.00
77159;BME280;66129;45.890;13.714;2023-08-31T05:27:21;100713.97;;;15.68;100.00
77159;BME280;66129;45.890;13.714;2023-08-31T05:29:47;100713.13;;;15.66;100.00
77159;BME280;66129;45.890;13.714;2023-08-31T05:32:12;100707.06;;;15.76;100.00
77159;BME280;66129;45.890;13.714;2023-08-31T05:34:38;100710.47;;;15.87;100.00
77159;BME280;66129;45.890;13.714;2023-08-31T05:37:05;100723.38;;;16.04;100.00
77159;BME280;66129;45.890;13.714;2023-08-31T05:39:31;100718.16;;;16.05;100.00
77159;BME280;66129;45.890;13.714;2023-08-31T05:41:56;100731.94;;;16.13;100.00
77159;BME280;66129;45.890;13.714;2023-08-31T05:44:22;100721.59;;;16.18;100.00
77159;BME280;66129;45.890;13.714;2023-08-31T05:46:47;100738.63;;;16.65;100.00
77159;BME280;66129;45.890;13.714;2023-08-31T05:49:13;100729.25;;;17.68;100.00
77159;BME280;66129;45.890;13.714;2023-08-31T05:51:39;100720.34;;;18.65;99.89
77159;BME280;66129;45.890;13.714;2023-08-31T05:54:04;100733.50;;;19.13;94.50
77159;BME280;66129;45.890;13.714;2023-08-31T05:56:30;100729.81;;;19.27;92.71
77159;BME280;66129;45.890;13.714;2023-08-31T05:58:56;100722.78;;;19.34;93.86
77159;BME280;66129;45.890;13.714;2023-08-31T06:01:21;100728.78;;;19.36;87.48
77159;BME280;66129;45.890;13.714;2023-08-31T06:03:49;100735.81;;;19.81;86.53
77159;BME280;66129;45.890;13.714;2023-08-31T06:06:15;100728.28;;;20.13;82.32
77159;BME280;66129;45.890;13.714;2023-08-31T06:08:40;100737.81;;;20.56;79.55
77159;BME280;66129;45.890;13.714;2023-08-31T06:11:08;100736.28;;;21.23;80.00
77159;BME280;66129;45.890;13.714;2023-08-31T06:13:34;100746.44;;;21.33;76.36
77159;BME280;66129;45.890;13.714;2023-08-31T06:15:59;100739.16;;;21.46;73.06
77159;BME280;66129;45.890;13.714;2023-08-31T06:18:25;100760.16;;;21.76;76.19
77159;BME280;66129;45.890;13.714;2023-08-31T06:20:51;100764.59;;;22.05;74.85
77159;BME280;66129;45.890;13.714;2023-08-31T06:23:17;100755.31;;;22.57;72.75
77159;BME280;66129;45.890;13.714;2023-08-31T06:25:42;100765.59;;;22.63;71.42
77159;BME280;66129;45.890;13.714;2023-08-31T06:28:10;100756.28;;;22.53;69.48
77159;BME280;66129;45.890;13.714;2023-08-31T06:30:36;100771.50;;;22.69;72.11
77159;BME280;66129;45.890;13.714;2023-08-31T06:33:02;100767.19;;;23.25;70.24
77159;BME280;66129;45.890;13.714;2023-08-31T06:35:28;100766.63;;;23.41;68.74
77159;BME280;66129;45.890;13.714;2023-08-31T06:37:53;100769.19;;;23.43;68.41
77159;BME280;66129;45.890;13.714;2023-08-31T06:40:21;100770.53;;;23.28;69.08
77159;BME280;66129;45.890;13.714;2023-08-31T06:42:47;100778.91;;;23.65;67.80
77159;BME280;66129;45.890;13.714;2023-08-31T06:45:12;100776.38;;;23.89;67.15
77159;BME280;66129;45.890;13.714;2023-08-31T06:47:38;100780.97;;;24.07;64.29
77159;BME280;66129;45.890;13.714;2023-08-31T06:50:04;100790.91;;;23.98;66.72
77159;BME280;66129;45.890;13.714;2023-08-31T06:52:29;100773.16;;;24.06;67.00
77159;BME280;66129;45.890;13.714;2023-08-31T06:54:55;100783.47;;;24.82;65.35
77159;BME280;66129;45.890;13.714;2023-08-31T06:57:22;100785.72;;;25.14;61.69
77159;BME280;66129;45.890;13.714;2023-08-31T06:59:48;100784.19;;;25.30;61.33
77159;BME280;66129;45.890;13.714;2023-08-31T07:02:14;100790.59;;;25.44;64.11
77159;BME280;66129;45.890;13.714;2023-08-31T07:04:40;100787.16;;;24.77;64.72
77159;BME280;66129;45.890;13.714;2023-08-31T07:07:06;100800.06;;;24.11;66.31
77159;BME280;66129;45.890;13.714;2023-08-31T07:09:34;100793.72;;;23.13;66.37
77159;BME280;66129;45.890;13.714;2023-08-31T07:11:59;100811.47;;;22.73;73.84
77159;BME280;66129;45.890;13.714;2023-08-31T07:14:26;100804.56;;;22.70;68.37
77159;BME280;66129;45.890;13.714;2023-08-31T07:16:52;100803.25;;;23.94;64.27
77159;BME280;66129;45.890;13.714;2023-08-31T07:19:17;100798.41;;;23.57;62.28
77159;BME280;66129;45.890;13.714;2023-08-31T07:21:43;100808.94;;;22.99;62.58
77159;BME280;66129;45.890;13.714;2023-08-31T07:24:08;100817.03;;;22.61;64.89
77159;BME280;66129;45.890;13.714;2023-08-31T07:26:34;100815.47;;;22.55;64.07
77159;BME280;66129;45.890;13.714;2023-08-31T07:29:00;100816.03;;;22.35;65.34
77159;BME280;66129;45.890;13.714;2023-08-31T07:31:29;100818.75;;;22.30;64.83
77159;BME280;66129;45.890;13.714;2023-08-31T07:33:55;100816.75;;;23.55;61.58
77159;BME280;66129;45.890;13.714;2023-08-31T07:36:21;100808.81;;;24.59;58.83
77159;BME280;66129;45.890;13.714;2023-08-31T07:38:46;100813.59;;;25.16;57.04
77159;BME280;66129;45.890;13.714;2023-08-31T07:41:12;100826.47;;;25.65;55.89
77159;BME280;66129;45.890;13.714;2023-08-31T07:43:37;100827.28;;;25.89;52.73
77159;BME280;66129;45.890;13.714;2023-08-31T07:46:03;100830.78;;;26.09;52.92
77159;BME280;66129;45.890;13.714;2023-08-31T07:48:28;100830.91;;;26.06;52.39
77159;BME280;66129;45.890;13.714;2023-08-31T07:50:55;100829.88;;;26.50;50.22
77159;BME280;66129;45.890;13.714;2023-08-31T07:53:20;100839.50;;;26.69;51.90
77159;BME280;66129;45.890;13.714;2023-08-31T07:55:55;100829.34;;;26.80;50.26
77159;BME280;66129;45.890;13.714;2023-08-31T07:58:24;100833.94;;;26.95;49.48
77159;BME280;66129;45.890;13.714;2023-08-31T08:00:52;100831.34;;;27.49;48.00
77159;BME280;66129;45.890;13.714;2023-08-31T08:03:19;100844.91;;;27.58;48.51
77159;BME280;66129;45.890;13.714;2023-08-31T08:05:44;100826.59;;;28.25;48.49
77159;BME280;66129;45.890;13.714;2023-08-31T08:08:10;100832.13;;;28.37;45.07
77159;BME280;66129;45.890;13.714;2023-08-31T08:10:36;100840.44;;;28.30;44.22
77159;BME280;66129;45.890;13.714;2023-08-31T08:13:02;100838.34;;;28.02;47.62
77159;BME280;66129;45.890;13.714;2023-08-31T08:15:28;100834.72;;;28.38;45.59
77159;BME280;66129;45.890;13.714;2023-08-31T08:17:54;100838.88;;;28.09;45.45
77159;BME280;66129;45.890;13.714;2023-08-31T08:20:19;100836.16;;;28.44;46.77
77159;BME280;66129;45.890;13.714;2023-08-31T08:22:45;100838.28;;;28.37;44.70
77159;BME280;66129;45.890;13.714;2023-08-31T08:25:11;100846.88;;;28.90;44.07
77159;BME280;66129;45.890;13.714;2023-08-31T08:27:37;100849.66;;;29.20;41.36
77159;BME280;66129;45.890;13.714;2023-08-31T08:30:03;100864.88;;;29.15;41.07
77159;BME280;66129;45.890;13.714;2023-08-31T08:32:28;100867.19;;;29.21;41.02
77159;BME280;66129;45.890;13.714;2023-08-31T08:34:54;100865.66;;;29.17;40.08
77159;BME280;66129;45.890;13.714;2023-08-31T08:37:20;100858.75;;;28.82;41.84
77159;BME280;66129;45.890;13.714;2023-08-31T08:39:51;100858.56;;;29.17;42.61
77159;BME280;66129;45.890;13.714;2023-08-31T08:42:18;100881.50;;;29.94;39.86
77159;BME280;66129;45.890;13.714;2023-08-31T08:44:45;100872.38;;;29.84;36.71
77159;BME280;66129;45.890;13.714;2023-08-31T08:47:11;100879.56;;;29.66;39.40
77159;BME280;66129;45.890;13.714;2023-08-31T08:49:38;100867.97;;;30.14;37.35
77159;BME280;66129;45.890;13.714;2023-08-31T08:52:04;100874.16;;;30.58;36.48
77159;BME280;66129;45.890;13.714;2023-08-31T08:54:30;100874.16;;;30.71;39.21
77159;BME280;66129;45.890;13.714;2023-08-31T08:56:56;100881.28;;;30.42;37.08
77159;BME280;66129;45.890;13.714;2023-08-31T08:59:23;100892.63;;;30.44;38.85
77159;BME280;66129;45.890;13.714;2023-08-31T09:01:49;100883.31;;;30.80;35.38
77159;BME280;66129;45.890;13.714;2023-08-31T09:04:14;100881.72;;;30.91;34.34
77159;BME280;66129;45.890;13.714;2023-08-31T09:06:40;100877.53;;;30.60;33.92
77159;BME280;66129;45.890;13.714;2023-08-31T09:09:08;100879.81;;;30.66;35.25
77159;BME280;66129;45.890;13.714;2023-08-31T09:11:35;100884.94;;;30.55;35.10
77159;BME280;66129;45.890;13.714;2023-08-31T09:14:13;100877.66;;;30.86;33.99
77159;BME280;66129;45.890;13.714;2023-08-31T09:16:44;100878.97;;;30.79;33.50
77159;BME280;66129;45.890;13.714;2023-08-31T09:19:22;100879.78;;;31.63;33.16
77159;BME280;66129;45.890;13.714;2023-08-31T09:21:49;100887.81;;;31.07;36.44
77159;BME280;66129;45.890;13.714;2023-08-31T09:24:15;100883.25;;;30.81;36.89
77159;BME280;66129;45.890;13.714;2023-08-31T09:26:46;100887.13;;;30.90;37.69
77159;BME280;66129;45.890;13.714;2023-08-31T09:29:12;100880.59;;;31.23;37.65
77159;BME280;66129;45.890;13.714;2023-08-31T09:31:40;100876.75;;;31.69;35.75
77159;BME280;66129;45.890;13.714;2023-08-31T09:34:06;100872.88;;;31.87;36.62
77159;BME280;66129;45.890;13.714;2023-08-31T09:36:32;100871.34;;;31.83;34.71
77159;BME280;66129;45.890;13.714;2023-08-31T09:39:00;100873.84;;;31.98;34.48
77159;BME280;66129;45.890;13.714;2023-08-31T09:41:26;100883.38;;;31.88;35.08
77159;BME280;66129;45.890;13.714;2023-08-31T09:43:51;100881.81;;;31.04;35.31
77159;BME280;66129;45.890;13.714;2023-08-31T09:46:17;100878.34;;;30.46;37.27
77159;BME280;66129;45.890;13.714;2023-08-31T09:48:43;100882.00;;;30.00;36.65
77159;BME280;66129;45.890;13.714;2023-08-31T09:51:13;100891.81;;;29.83;34.80
77159;BME280;66129;45.890;13.714;2023-08-31T09:53:41;100872.28;;;29.85;31.88
77159;BME280;66129;45.890;13.714;2023-08-31T09:56:08;100878.69;;;29.97;33.59
77159;BME280;66129;45.890;13.714;2023-08-31T09:58:37;100876.44;;;30.77;32.80
77159;BME280;66129;45.890;13.714;2023-08-31T10:01:02;100874.38;;;31.10;32.65
77159;BME280;66129;45.890;13.714;2023-08-31T10:03:28;100869.22;;;31.21;31.43
77159;BME280;66129;45.890;13.714;2023-08-31T10:05:55;100878.13;;;31.34;30.86
77159;BME280;66129;45.890;13.714;2023-08-31T10:08:22;100890.19;;;31.66;31.59
77159;BME280;66129;45.890;13.714;2023-08-31T10:10:49;100887.28;;;31.83;32.07
77159;BME280;66129;45.890;13.714;2023-08-31T10:13:15;100887.53;;;32.31;31.83
77159;BME280;66129;45.890;13.714;2023-08-31T10:15:43;100875.88;;;31.69;33.85
77159;BME280;66129;45.890;13.714;2023-08-31T10:18:09;100875.50;;;31.06;32.69
77159;BME280;66129;45.890;13.714;2023-08-31T10:20:35;100869.41;;;30.63;34.19
77159;BME280;66129;45.890;13.714;2023-08-31T10:23:05;100875.03;;;31.28;34.16
77159;BME280;66129;45.890;13.714;2023-08-31T10:28:20;100884.59;;;32.23;30.46
77159;BME280;66129;45.890;13.714;2023-08-31T10:31:17;100886.09;;;31.75;33.21
77159;BME280;66129;45.890;13.714;2023-08-31T10:33:54;100891.22;;;31.90;32.31
77159;BME280;66129;45.890;13.714;2023-08-31T10:36:20;100892.84;;;31.66;34.09
77159;BME280;66129;45.890;13.714;2023-08-31T10:41:23;100893.25;;;31.32;37.29
77159;BME280;66129;45.890;13.714;2023-08-31T10:43:56;100890.22;;;30.96;37.65
77159;BME280;66129;45.890;13.714;2023-08-31T10:46:35;100888.34;;;31.26;35.52
77159;BME280;66129;45.890;13.714;2023-08-31T10:51:37;100896.78;;;30.91;36.02
77159;BME280;66129;45.890;13.714;2023-08-31T10:54:08;100893.66;;;29.67;36.76
77159;BME280;66129;45.890;13.714;2023-08-31T10:56:51;100892.19;;;28.49;41.50
77159;BME280;66129;45.890;13.714;2023-08-31T10:59:21;100895.91;;;27.76;41.52
77159;BME280;66129;45.890;13.714;2023-08-31T11:04:23;100879.25;;;28.28;40.34
77159;BME280;66129;45.890;13.714;2023-08-31T11:06:49;100879.94;;;28.48;39.24
77159;BME280;66129;45.890;13.714;2023-08-31T11:09:19;100885.88;;;29.33;37.46
77159;BME280;66129;45.890;13.714;2023-08-31T11:11:45;100875.03;;;29.84;37.36
77159;BME280;66129;45.890;13.714;2023-08-31T11:14:11;100879.66;;;29.34;37.32
77159;BME280;66129;45.890;13.714;2023-08-31T11:16:39;100889.09;;;29.23;38.75
77159;BME280;66129;45.890;13.714;2023-08-31T11:19:05;100893.44;;;29.08;37.92
77159;BME280;66129;45.890;13.714;2023-08-31T11:21:31;100889.94;;;29.23;38.55
77159;BME280;66129;45.890;13.714;2023-08-31T11:23:58;100884.31;;;29.14;40.50
77159;BME280;66129;45.890;13.714;2023-08-31T11:26:26;100883.06;;;29.36;41.13
77159;BME280;66129;45.890;13.714;2023-08-31T11:28:52;100887.91;;;29.90;39.96
77159;BME280;66129;45.890;13.714;2023-08-31T11:31:24;100883.63;;;29.26;38.48
77159;BME280;66129;45.890;13.714;2023-08-31T11:33:50;100883.75;;;28.42;41.08
77159;BME280;66129;45.890;13.714;2023-08-31T11:36:16;100870.09;;;27.82;40.89
77159;BME280;66129;45.890;13.714;2023-08-31T11:38:44;100889.00;;;27.55;43.72
77159;BME280;66129;45.890;13.714;2023-08-31T11:41:10;100887.97;;;27.22;42.87
77159;BME280;66129;45.890;13.714;2023-08-31T11:43:36;100887.34;;;26.97;43.84
77159;BME280;66129;45.890;13.714;2023-08-31T11:46:03;100895.69;;;26.87;43.65
77159;BME280;66129;45.890;13.714;2023-08-31T11:48:30;100902.75;;;26.86;43.71
77159;BME280;66129;45.890;13.714;2023-08-31T11:50:57;100905.25;;;26.69;46.53
77159;BME280;66129;45.890;13.714;2023-08-31T11:53:23;100908.44;;;26.57;48.32
77159;BME280;66129;45.890;13.714;2023-08-31T11:55:53;100913.97;;;26.51;46.82
77159;BME280;66129;45.890;13.714;2023-08-31T11:58:21;100915.75;;;26.51;48.15
77159;BME280;66129;45.890;13.714;2023-08-31T12:00:58;100910.19;;;26.57;46.80
77159;BME280;66129;45.890;13.714;2023-08-31T12:03:25;100909.38;;;26.35;47.14
77159;BME280;66129;45.890;13.714;2023-08-31T12:05:52;100910.34;;;26.12;49.80
77159;BME280;66129;45.890;13.714;2023-08-31T12:08:25;100900.09;;;26.68;46.65
77159;BME280;66129;45.890;13.714;2023-08-31T12:10:51;100897.06;;;27.33;46.17
77159;BME280;66129;45.890;13.714;2023-08-31T12:13:17;100887.44;;;27.14;46.49
77159;BME280;66129;45.890;13.714;2023-08-31T12:15:42;100895.34;;;27.14;48.45
77159;BME280;66129;45.890;13.714;2023-08-31T12:18:11;100904.88;;;26.78;48.25
77159;BME280;66129;45.890;13.714;2023-08-31T12:20:44;100887.50;;;26.34;46.35
77159;BME280;66129;45.890;13.714;2023-08-31T12:23:10;100888.69;;;26.07;47.33
77159;BME280;66129;45.890;13.714;2023-08-31T12:25:36;100896.47;;;26.09;50.61
77159;BME280;66129;45.890;13.714;2023-08-31T12:28:01;100906.28;;;26.25;48.54
77159;BME280;66129;45.890;13.714;2023-08-31T12:30:28;100904.13;;;26.35;52.41
77159;BME280;66129;45.890;13.714;2023-08-31T12:32:53;100910.31;;;26.34;50.61
77159;BME280;66129;45.890;13.714;2023-08-31T12:35:19;100896.97;;;26.38;48.80
77159;BME280;66129;45.890;13.714;2023-08-31T12:37:44;100888.72;;;26.47;50.75
77159;BME280;66129;45.890;13.714;2023-08-31T12:40:10;100889.44;;;26.51;49.02
77159;BME280;66129;45.890;13.714;2023-08-31T12:42:36;100889.28;;;26.74;48.46
77159;BME280;66129;45.890;13.714;2023-08-31T12:45:02;100885.00;;;26.91;49.15
77159;BME280;66129;45.890;13.714;2023-08-31T12:47:30;100875.59;;;27.24;48.43
77159;BME280;66129;45.890;13.714;2023-08-31T12:49:56;100881.03;;;27.56;46.40